Latest Weather Observations for Argyle

IDW60801

Issued at 1:03 pm WST Saturday 30 July 2016 (issued every 30 minutes, with the page automatically refreshed every 10 minutes)

About weather observations | Map of weather stations | Latest weather observations for WA | Other Formats
Station Details ID: 002064 Name: ARGYLE AERODROME Lat: -16.64 Lon: 128.45 Height: 164.0 m
Data from the previous 72 hours. | See also: Recent months at Argyle
Date/Time
WST
Temp
°C
App
Temp
°C
Dew
Point
°C
Rel
Hum
%
Delta-T
°C
Wind Press
QNH
hPa
Press
MSL
hPa
Rain since
9am
mm
Dir  Spd
km/h
Gust
km/h
Spd
kts
Gust
kts
30/01:00pm 30.2 25.0 -5.9 9 15.7 E 13 22 7 12 1014.8 - 0.0
30/12:30pm 28.6 23.0 -5.9 10 14.8 E 15 22 8 12 1015.5 - 0.0
30/12:00pm 28.9 22.6 -6.2 9 15.0 E 19 28 10 15 1016.3 1015.6 0.0
30/11:30am 27.7 21.2 -6.0 10 14.3 E 20 32 11 17 1016.7 - 0.0
30/11:00am 27.7 21.3 -6.6 10 14.4 ENE 19 28 10 15 1017.4 - 0.0
30/10:30am 27.2 19.9 -5.9 11 14.0 E 24 35 13 19 1018.0 - 0.0
30/10:00am 25.7 19.8 -5.4 12 13.1 ENE 17 26 9 14 1018.5 - 0.0
30/09:30am 23.9 18.0 -5.2 14 12.1 ESE 17 22 9 12 1018.9 - 0.0
30/09:00am 23.8 18.3 -5.0 14 12.0 ESE 15 24 8 13 1019.0 1018.3 0.0
30/08:30am 23.0 18.0 -4.5 15 11.5 ESE 13 19 7 10 1019.1 - 0.0
30/08:00am 22.4 17.3 -5.1 15 11.3 ESE 13 19 7 10 1019.0 - 0.0
30/07:30am 21.5 17.3 -3.5 18 10.5 ESE 9 13 5 7 1018.7 - 0.0
30/07:00am 18.3 16.2 -1.1 27 8.3 CALM 0 0 0 0 1018.3 - 0.0
30/06:30am 16.0 12.6 -2.4 28 7.5 NW 6 7 3 4 1018.1 - 0.0
30/06:00am 13.6 11.1 -1.0 36 6.0 S 2 7 1 4 1017.8 1017.2 0.0
30/05:30am 15.9 12.5 -0.6 32 7.0 ESE 7 9 4 5 1017.5 - 0.0
30/05:00am 15.6 11.7 -1.2 31 7.0 E 9 13 5 7 1017.1 - 0.0
30/04:30am 15.5 13.7 1.4 38 6.2 CALM 0 0 0 0 1016.8 - 0.0
30/04:00am 16.4 14.4 -0.1 32 7.1 CALM 0 0 0 0 1016.7 - 0.0
30/03:30am 17.6 15.1 -1.2 28 8.0 ESE 2 7 1 4 1016.7 - 0.0
30/03:00am 18.0 15.5 -0.8 28 8.1 ESE 2 9 1 5 1016.6 1015.9 0.0
30/02:30am 19.1 17.0 -0.6 26 8.6 CALM 0 0 0 0 1016.7 - 0.0
30/02:00am 17.9 14.9 1.1 32 7.5 SSE 6 7 3 4 1016.6 - 0.0
30/01:30am 18.5 15.5 1.8 32 7.6 SSE 7 9 4 5 1016.7 - 0.0
30/01:00am 18.5 15.6 2.8 35 7.3 SE 7 9 4 5 1016.8 - 0.0
30/12:30am 17.9 15.2 2.8 36 7.0 E 6 7 3 4 1016.9 - 0.0
30/12:00am 18.2 16.1 2.0 34 7.4 SE 2 7 1 4 1017.0 1016.3 0.0
 
Date/Time
WST
Temp
°C
App
Temp
°C
Dew
Point
°C
Rel
Hum
%
Delta-T
°C
Wind Press
QNH
hPa
Press
MSL
hPa
Rain since
9am
mm
Dir  Spd
km/h
Gust
km/h
Spd
kts
Gust
kts
29/11:30pm 19.1 17.1 2.5 33 7.7 SE 2 7 1 4 1017.1 - 0.0
29/11:00pm 19.3 16.9 4.1 36 7.3 ESE 6 7 3 4 1017.1 - 0.0
29/10:30pm 19.8 16.6 3.1 33 7.9 E 9 11 5 6 1017.2 - 0.0
29/10:00pm 20.7 16.9 2.0 29 8.7 ESE 11 13 6 7 1017.2 - 0.0
29/09:30pm 20.9 17.1 1.7 28 8.9 E 11 13 6 7 1017.2 - 0.0
29/09:00pm 21.7 18.2 1.4 26 9.4 ENE 9 11 5 6 1017.2 1016.6 0.0
29/08:30pm 21.6 19.0 3.3 30 8.8 SE 6 9 3 5 1017.1 - 0.0
29/08:00pm 22.2 19.8 2.0 26 9.5 SSE 4 7 2 4 1016.9 - 0.0
29/07:30pm 23.4 20.7 3.6 27 9.7 SSE 7 13 4 7 1016.6 - 0.0
29/07:00pm 24.2 21.2 2.0 23 10.6 SSE 7 11 4 6 1016.3 - 0.0
29/06:30pm 24.3 20.8 1.5 22 10.8 SSE 9 13 5 7 1016.0 - 0.0
29/06:00pm 25.1 21.6 1.0 20 11.4 SSE 9 15 5 8 1015.6 1014.9 0.0
29/05:00pm 27.7 23.2 -0.4 16 13.2 SSE 13 20 7 11 1015.0 - 0.0
29/04:30pm 28.8 24.3 -0.3 15 13.8 SE 13 20 7 11 1014.9 - -
29/04:00pm 29.1 23.8 -0.8 14 14.1 SSE 17 24 9 13 1014.9 - 0.0
29/03:30pm 29.4 24.1 -0.5 14 14.2 ESE 17 24 9 13 1014.9 - 0.0
29/03:00pm 29.7 24.3 -1.1 13 14.5 ESE 17 24 9 13 1014.9 1014.2 0.0
29/02:30pm 29.2 24.9 0.7 16 13.8 E 13 24 7 13 1015.0 - 0.0
29/02:00pm 29.4 24.6 -0.1 15 14.1 ESE 15 20 8 11 1015.2 - 0.0
29/01:30pm 28.2 24.2 0.4 16 13.3 SE 11 22 6 12 1015.6 - 0.0
29/01:00pm 28.3 24.0 -1.6 14 13.8 SE 11 20 6 11 1016.2 - 0.0
29/12:30pm 27.6 22.2 -1.1 15 13.3 SE 17 26 9 14 1016.9 - 0.0
29/12:00pm 27.1 22.9 -0.6 16 12.9 E 11 24 6 13 1017.5 1016.9 0.0
29/11:30am 26.8 20.3 -2.3 14 13.1 ESE 22 37 12 20 1018.0 - 0.0
29/11:00am 25.5 20.8 -1.5 17 12.2 SE 13 24 7 13 1018.9 - 0.0
29/10:30am 25.4 20.3 -1.7 16 12.2 SE 15 22 8 12 1019.5 - 0.0
29/10:00am 23.8 19.4 -2.5 17 11.5 ESE 11 19 6 10 1020.2 - 0.0
29/09:30am 23.2 18.3 -3.1 17 11.3 ESE 13 30 7 16 1020.4 - 0.0
29/09:00am 22.3 17.1 -3.0 18 10.8 ESE 15 20 8 11 1020.7 1020.0 0.0
29/08:30am 22.0 17.2 -2.8 19 10.6 SE 13 20 7 11 1020.9 - 0.0
29/08:00am 20.7 15.8 -3.1 20 10.0 SE 13 17 7 9 1020.8 - 0.0
29/07:30am 20.2 14.9 -3.8 19 9.9 SE 15 20 8 11 1020.8 - 0.0
29/07:00am 19.4 22.1 19.4 100 0.0 SSE 4 7 2 4 1020.4 - 0.0
29/06:00am 16.1 17.4 16.1 100 0.0 E 4 7 2 4 1019.6 1018.9 0.0
29/05:30am 17.4 18.7 17.2 99 0.1 SE 6 9 3 5 1019.4 - 0.0
29/05:00am 16.9 18.5 16.9 100 0.0 SW 4 7 2 4 1019.2 - 0.0
29/04:30am 15.8 17.3 15.8 100 0.0 E 2 6 1 3 1019.0 - 0.0
29/04:00am 16.9 17.5 16.9 100 0.0 ESE 9 13 5 7 1018.5 - 0.0
29/03:30am 16.2 16.6 16.2 100 0.0 E 9 11 5 6 1018.3 - 0.0
29/03:00am 16.6 16.7 16.6 100 0.0 E 11 13 6 7 1018.2 1017.6 0.0
29/02:30am 17.2 17.2 17.2 100 0.0 ESE 13 15 7 8 1018.1 - 0.0
29/02:00am 18.0 18.7 18.0 100 0.0 ESE 11 17 6 9 1018.1 - 0.0
29/01:30am 18.0 19.1 18.0 100 0.0 ESE 9 11 5 6 1018.3 - 0.0
29/01:00am 18.4 19.3 18.4 100 0.0 ESE 11 15 6 8 1018.2 - 0.0
29/12:30am 18.1 19.2 18.1 100 0.0 ESE 9 11 5 6 1018.3 - 0.0
29/12:00am 18.4 19.3 18.4 100 0.0 E 11 13 6 7 1018.7 1018.0 0.0
 
Date/Time
WST
Temp
°C
App
Temp
°C
Dew
Point
°C
Rel
Hum
%
Delta-T
°C
Wind Press
QNH
hPa
Press
MSL
hPa
Rain since
9am
mm
Dir  Spd
km/h
Gust
km/h
Spd
kts
Gust
kts
28/11:30pm 18.8 18.9 15.6 82 1.9 ESE 9 11 5 6 1018.8 - 0.0
28/11:00pm 19.2 14.8 -2.5 23 9.1 ESE 11 13 6 7 1018.7 - 0.0
28/10:30pm 19.2 14.6 -4.3 20 9.5 E 11 13 6 7 1018.7 - 0.0
28/10:00pm 20.1 15.4 -5.5 17 10.2 ESE 11 15 6 8 1018.7 - 0.0
28/09:30pm 21.5 15.8 -7.7 13 11.3 SE 15 20 8 11 1018.4 - 0.0
28/09:00pm 21.3 16.0 -7.1 14 11.1 ESE 13 17 7 9 1018.4 - 0.0
28/08:30pm 23.6 17.8 -9.2 10 12.6 SE 15 19 8 10 1018.3 - 0.0
28/08:00pm 24.4 18.9 -9.8 9 13.1 SSE 13 19 7 10 1018.1 - 0.0
28/07:30pm 24.8 19.3 -9.7 9 13.3 SE 13 19 7 10 1017.9 - 0.0
28/07:00pm 24.1 19.4 -5.1 14 12.2 SSE 11 20 6 11 1017.5 - 0.0
28/06:30pm 24.1 19.9 -4.1 15 12.0 SSE 9 13 5 7 1017.3 - 0.0
28/06:00pm 24.4 20.6 -1.0 18 11.5 S 9 11 5 6 1017.0 1016.3 0.0
28/05:30pm 25.1 21.6 -1.5 17 12.0 SSE 7 9 4 5 1016.7 - 0.0
28/05:00pm 26.9 21.9 -4.5 12 13.6 SE 13 17 7 9 1016.4 - 0.0
28/04:30pm 27.9 22.7 -6.5 10 14.5 ESE 13 19 7 10 1016.3 - 0.0
28/04:00pm 28.4 22.4 -6.6 9 14.8 SE 17 26 9 14 1016.2 - 0.0
28/03:30pm 28.1 22.1 -6.4 10 14.6 ESE 17 28 9 15 1016.1 - 0.0
28/03:00pm 28.2 21.9 -5.5 10 14.5 SE 19 26 10 14 1016.1 1015.4 0.0
28/02:30pm 28.4 22.1 -5.4 10 14.6 ESE 19 32 10 17 1016.2 - 0.0
28/02:00pm 27.5 21.3 -4.9 11 14.0 SSE 19 32 10 17 1016.5 - 0.0
28/01:30pm 27.1 20.9 -4.4 12 13.7 ESE 19 32 10 17 1016.9 - 0.0
28/01:00pm 26.6 21.8 -2.3 15 13.0 SSE 13 24 7 13 1017.5 - 0.0
28/12:30pm 26.4 20.6 -4.4 13 13.3 E 17 24 9 13 1018.0 - 0.0
28/12:00pm 25.8 20.0 -5.1 12 13.1 ESE 17 26 9 14 1018.8 1018.1 0.0
28/11:30am 24.9 19.1 -4.5 14 12.5 ESE 17 28 9 15 1019.5 - 0.0
28/11:00am 24.6 19.2 -4.9 14 12.4 SE 15 22 8 12 1020.1 - 0.0
28/10:30am 24.7 18.3 -5.1 13 12.5 ESE 20 28 11 15 1020.7 - 0.0
28/10:00am 24.1 17.2 -5.8 13 12.3 E 22 32 12 17 1021.3 - 0.0
28/09:30am 23.2 16.3 -6.2 13 11.9 E 22 30 12 16 1021.7 - 0.0
28/09:00am 22.9 16.6 -5.4 14 11.6 ESE 19 28 10 15 1022.0 1021.4 0.0
28/08:30am 21.7 15.8 -6.1 15 11.1 SE 17 24 9 13 1022.4 - -
28/08:00am 21.2 15.2 -6.4 15 10.9 ESE 17 24 9 13 1022.4 - -
28/07:30am 20.6 14.6 -6.4 15 10.6 SE 17 26 9 14 1022.1 - -
28/07:00am 20.0 15.2 -6.4 16 10.3 SE 11 19 6 10 1021.9 - -
28/06:30am 18.5 16.2 -2.3 24 8.7 CALM 0 6 0 3 1021.6 - -
28/06:00am 16.9 13.4 -3.1 25 8.1 SSE 6 7 3 4 1021.3 1020.6 -
28/05:30am 16.9 13.4 -3.1 25 8.1 SE 6 9 3 5 1020.9 - -
28/05:00am 17.2 13.7 -2.9 25 8.2 SSE 6 7 3 4 1020.6 - -
28/04:30am 17.4 13.6 -5.2 21 8.8 ESE 6 9 3 5 1020.3 - -
28/04:00am 17.4 13.4 -5.2 21 8.8 ESE 7 11 4 6 1020.2 - -
28/03:30am 18.8 14.0 -6.3 17 9.7 SE 11 17 6 9 1020.0 - -
28/03:00am 19.1 14.2 -6.6 17 9.9 SE 11 15 6 8 1019.8 1019.1 -
28/02:30am 19.5 14.3 -6.1 17 10.0 SE 13 17 7 9 1019.8 - -
28/02:00am 20.2 15.0 -5.8 17 10.3 SE 13 17 7 9 1019.7 - -
28/01:30am 20.5 15.8 -5.5 17 10.4 SSE 11 15 6 8 1019.8 - -
28/01:00am 20.8 16.1 -4.7 17 10.4 SSE 11 15 6 8 1019.7 - -
28/12:30am 20.9 15.9 -4.5 18 10.4 SSE 13 19 7 10 1019.6 - -
28/12:00am 20.9 16.4 -3.5 19 10.2 SE 11 15 6 8 1019.5 1018.8 -
 
Date/Time
WST
Temp
°C
App
Temp
°C
Dew
Point
°C
Rel
Hum
%
Delta-T
°C
Wind Press
QNH
hPa
Press
MSL
hPa
Rain since
9am
mm
Dir  Spd
km/h
Gust
km/h
Spd
kts
Gust
kts
27/11:30pm 21.3 16.4 -3.0 19 10.3 SE 13 17 7 9 1019.5 - -
27/11:00pm 21.7 16.9 -2.6 19 10.4 SE 13 19 7 10 1019.3 - -
27/10:30pm 22.3 17.2 -2.0 19 10.6 SE 15 20 8 11 1019.3 - -
27/10:00pm 22.9 18.0 -0.7 21 10.6 SE 15 19 8 10 1019.1 - -
27/09:30pm 23.7 18.5 -0.2 20 10.9 SE 17 26 9 14 1018.9 - -
27/09:00pm 24.1 19.2 1.8 23 10.6 SE 17 22 9 12 1018.8 1018.1 -
27/08:30pm 24.6 20.0 1.7 22 10.9 SE 15 20 8 11 1018.5 - -
27/08:00pm 24.9 20.4 2.3 23 10.9 SE 15 20 8 11 1018.4 - -
27/07:30pm 25.3 20.8 2.4 22 11.1 SE 15 20 8 11 1018.1 - -
27/07:00pm 25.7 21.7 2.9 22 11.2 SE 13 19 7 10 1017.7 - -
27/06:30pm 26.5 22.1 2.7 21 11.7 SE 15 20 8 11 1017.3 - -
27/06:00pm 27.0 22.6 2.7 21 12.0 SE 15 22 8 12 1017.0 1016.3 -
27/05:30pm 27.8 23.0 2.5 19 12.5 SE 17 26 9 14 1016.8 - -
27/05:00pm 28.7 23.0 3.0 19 12.9 SE 22 32 12 17 1016.3 - -
27/04:30pm 29.8 24.5 3.2 18 13.5 SSE 20 30 11 16 1015.9 - -
27/04:00pm 30.4 25.3 3.0 17 13.9 ESE 19 28 10 15 1015.7 - -
27/03:30pm 30.6 25.5 3.1 17 14.0 ESE 19 26 10 14 1015.4 - -
27/03:00pm 30.6 25.6 3.5 18 13.9 ESE 19 30 10 16 1015.4 - -
27/02:30pm 30.6 25.6 3.5 18 13.9 E 19 28 10 15 1015.4 - -
27/02:00pm 30.5 24.4 2.9 17 14.0 E 24 35 13 19 1015.6 - -
27/01:30pm 30.2 25.2 3.7 18 13.6 ESE 19 30 10 16 1015.8 - -

Other Formats:

Comma delimited format used in spreadsheet applications
http://www.bom.gov.au/fwo/IDW60801/IDW60801.94217.axf

JavaScript Object Notation format (JSON) in row-major order
http://www.bom.gov.au/fwo/IDW60801/IDW60801.94217.json